createdAt,value
2023-05-11T00:00:30.907Z,8.81
2023-05-11T00:01:33.999Z,8.79
2023-05-11T00:02:38.816Z,8.76
2023-05-11T00:03:41.075Z,8.77
2023-05-11T00:04:46.290Z,8.72
2023-05-11T00:05:49.379Z,8.67
2023-05-11T00:06:54.278Z,8.63
2023-05-11T00:07:56.337Z,8.61
2023-05-11T00:09:01.004Z,8.64
2023-05-11T00:10:06.757Z,8.59
2023-05-11T00:11:11.792Z,8.56
2023-05-11T00:12:14.421Z,8.56
2023-05-11T00:13:20.417Z,8.53
2023-05-11T00:14:22.533Z,8.55
2023-05-11T00:15:27.459Z,8.55
2023-05-11T00:16:29.893Z,8.52
2023-05-11T00:17:34.647Z,8.50
2023-05-11T00:18:36.802Z,8.46
2023-05-11T00:19:41.534Z,8.43
2023-05-11T00:20:43.582Z,8.41
2023-05-11T00:21:48.208Z,8.41
2023-05-11T00:22:50.280Z,8.41
2023-05-11T00:23:55.113Z,8.48
2023-05-11T00:24:57.102Z,8.48
2023-05-11T00:26:04.375Z,8.47
2023-05-11T00:27:06.643Z,8.46
2023-05-11T00:28:11.358Z,8.50
2023-05-11T00:29:13.417Z,8.48
2023-05-11T00:30:18.646Z,8.44
2023-05-11T00:31:20.870Z,8.42
2023-05-11T00:32:25.695Z,8.42
2023-05-11T00:33:27.751Z,8.48
2023-05-11T00:34:32.849Z,8.46
2023-05-11T00:35:34.869Z,8.42
2023-05-11T00:36:41.256Z,8.48
2023-05-11T00:37:43.516Z,8.51
2023-05-11T00:38:48.179Z,8.51
2023-05-11T00:39:50.244Z,8.49
2023-05-11T00:40:55.565Z,8.51
2023-05-11T00:42:01.005Z,8.47
2023-05-11T00:43:05.623Z,8.46
2023-05-11T00:44:07.721Z,8.44
2023-05-11T00:45:12.811Z,8.43
2023-05-11T00:46:14.902Z,8.52
2023-05-11T00:47:19.725Z,8.55
2023-05-11T00:48:21.884Z,8.51
2023-05-11T00:49:26.965Z,8.55
2023-05-11T00:50:29.258Z,8.60
2023-05-11T00:51:34.963Z,8.58
2023-05-11T00:52:37.241Z,8.52
2023-05-11T00:53:42.050Z,8.53
2023-05-11T00:54:44.461Z,8.51
2023-05-11T00:55:49.204Z,8.51
2023-05-11T00:56:51.224Z,8.50
2023-05-11T00:57:58.462Z,8.54
2023-05-11T00:59:00.899Z,8.52
2023-05-11T01:00:05.810Z,8.52
2023-05-11T01:01:08.284Z,8.54
2023-05-11T01:02:13.297Z,8.48
2023-05-11T01:03:16.037Z,8.47
2023-05-11T01:04:20.925Z,8.50
2023-05-11T01:05:23.037Z,8.52
2023-05-11T01:06:34.798Z,8.55
2023-05-11T01:07:44.307Z,8.53
2023-05-11T01:08:52.340Z,8.54
2023-05-11T01:10:01.043Z,8.54
2023-05-11T01:11:14.004Z,8.56
2023-05-11T01:12:23.827Z,8.51
2023-05-11T01:13:36.596Z,8.48
2023-05-11T01:14:43.981Z,8.43
2023-05-11T01:15:53.432Z,8.40
2023-05-11T01:16:59.644Z,8.41
2023-05-11T01:18:14.431Z,8.43
2023-05-11T01:19:24.800Z,8.40
2023-05-11T01:20:32.875Z,8.38
2023-05-11T01:21:36.073Z,8.36
2023-05-11T01:22:58.628Z,8.33
2023-05-11T01:24:19.637Z,8.36
2023-05-11T01:25:40.616Z,8.38
2023-05-11T01:27:26.924Z,8.39
2023-05-11T01:28:53.251Z,8.34
2023-05-11T01:30:27.630Z,8.29
2023-05-11T01:31:32.339Z,8.22
2023-05-11T01:32:41.422Z,8.20
2023-05-11T01:33:50.203Z,8.16
2023-05-11T01:35:03.156Z,8.13
2023-05-11T01:36:09.326Z,8.11
2023-05-11T01:37:17.047Z,8.10
2023-05-11T01:38:22.732Z,8.10
2023-05-11T01:39:33.355Z,8.11
2023-05-11T01:40:37.616Z,8.11
2023-05-11T01:41:44.934Z,8.12
2023-05-11T01:42:50.318Z,8.12
2023-05-11T01:43:58.621Z,8.08
2023-05-11T01:45:02.223Z,8.08
2023-05-11T01:46:12.100Z,8.08
2023-05-11T01:47:17.576Z,8.09
2023-05-11T01:48:27.043Z,8.08
2023-05-11T01:49:31.346Z,8.10
2023-05-11T01:50:37.426Z,8.11
2023-05-11T01:51:42.365Z,8.15
2023-05-11T01:52:49.798Z,8.11
2023-05-11T01:53:53.550Z,8.11
2023-05-11T01:55:00.370Z,8.09
2023-05-11T01:56:04.109Z,8.12
2023-05-11T01:57:10.053Z,8.06
2023-05-11T01:58:15.269Z,8.04
2023-05-11T01:59:21.362Z,8.03
2023-05-11T02:00:24.223Z,8.03
2023-05-11T02:01:32.696Z,8.02
2023-05-11T02:02:36.999Z,8.01
2023-05-11T02:03:44.366Z,8.07
2023-05-11T02:04:48.053Z,8.07
2023-05-11T02:05:55.225Z,8.10
2023-05-11T02:06:59.338Z,8.11
2023-05-11T02:08:07.397Z,8.08
2023-05-11T02:09:12.461Z,8.07
2023-05-11T02:10:19.506Z,8.06
2023-05-11T02:11:24.200Z,8.06
2023-05-11T02:12:30.534Z,8.06
2023-05-11T02:13:34.371Z,8.10
2023-05-11T02:14:40.720Z,8.14
2023-05-11T02:15:45.295Z,8.11
2023-05-11T02:16:53.615Z,8.09
2023-05-11T02:17:56.859Z,8.07
2023-05-11T02:19:02.969Z,8.06
2023-05-11T02:20:08.338Z,8.10
2023-05-11T02:21:13.844Z,8.14
2023-05-11T02:22:16.885Z,8.17
2023-05-11T02:23:23.995Z,8.16
2023-05-11T02:24:29.233Z,8.14
2023-05-11T02:25:34.495Z,8.13
2023-05-11T02:26:36.667Z,8.12
2023-05-11T02:27:42.048Z,8.14
2023-05-11T02:28:44.252Z,8.13
2023-05-11T02:29:49.415Z,8.11
2023-05-11T02:30:55.813Z,8.07
2023-05-11T02:32:09.484Z,8.08
2023-05-11T02:33:14.952Z,8.08
2023-05-11T02:34:24.651Z,8.08
2023-05-11T02:35:30.156Z,8.18
2023-05-11T02:36:36.932Z,8.19
2023-05-11T02:37:43.769Z,8.17
2023-05-11T02:38:50.518Z,8.18
2023-05-11T02:40:02.897Z,8.16
2023-05-11T02:41:12.171Z,8.18
2023-05-11T02:42:18.710Z,8.24
2023-05-11T02:43:27.357Z,8.31
2023-05-11T02:44:35.746Z,8.30
2023-05-11T02:45:41.870Z,8.29
2023-05-11T02:46:47.178Z,8.35
2023-05-11T02:47:56.961Z,8.33
2023-05-11T02:49:02.847Z,8.32
2023-05-11T02:50:09.899Z,8.29
2023-05-11T02:51:14.474Z,8.28
2023-05-11T02:52:20.537Z,8.29
2023-05-11T02:53:27.889Z,8.25
2023-05-11T02:54:33.994Z,8.27
2023-05-11T02:55:36.066Z,8.23
2023-05-11T02:56:41.414Z,8.21
2023-05-11T02:57:44.123Z,8.24
2023-05-11T02:58:49.234Z,8.26
2023-05-11T02:59:52.050Z,8.22
2023-05-11T03:00:57.285Z,8.19
2023-05-11T03:02:00.889Z,8.17
2023-05-11T03:03:08.714Z,8.16
2023-05-11T03:04:10.957Z,8.17
2023-05-11T03:05:15.747Z,8.18
2023-05-11T03:06:17.850Z,8.30
2023-05-11T03:07:22.541Z,8.27
2023-05-11T03:08:25.031Z,8.23
2023-05-11T03:09:29.792Z,8.20
2023-05-11T03:10:32.369Z,8.17
2023-05-11T03:11:37.241Z,8.17
2023-05-11T03:12:39.458Z,8.15
2023-05-11T03:13:45.340Z,8.15
2023-05-11T03:14:48.235Z,8.20
2023-05-11T03:15:54.316Z,8.20
2023-05-11T03:16:57.431Z,8.23
2023-05-11T03:18:03.692Z,8.28
2023-05-11T03:19:09.630Z,8.23
2023-05-11T03:20:15.220Z,8.19
2023-05-11T03:21:21.527Z,8.18
2023-05-11T03:22:27.284Z,8.22
2023-05-11T03:23:30.899Z,8.23
2023-05-11T03:24:36.442Z,8.21
2023-05-11T03:25:41.304Z,8.24
2023-05-11T03:26:44.305Z,8.24
2023-05-11T03:27:49.519Z,8.24
2023-05-11T03:28:52.773Z,8.21
2023-05-11T03:29:59.777Z,8.25
2023-05-11T03:31:01.941Z,8.28
2023-05-11T03:32:07.113Z,8.26
2023-05-11T03:33:09.844Z,8.24
2023-05-11T03:34:17.213Z,8.23
2023-05-11T03:37:22.077Z,8.21
2023-05-11T03:38:24.619Z,8.21
2023-05-11T03:39:32.768Z,8.21
2023-05-11T03:40:37.441Z,8.23
2023-05-11T03:41:43.400Z,8.24
2023-05-11T03:42:46.724Z,8.25
2023-05-11T03:43:54.151Z,8.28
2023-05-11T03:44:59.880Z,8.29
2023-05-11T03:46:06.830Z,8.30
2023-05-11T03:47:10.630Z,8.30
2023-05-11T03:48:18.641Z,8.29
2023-05-11T03:49:24.641Z,8.30
2023-05-11T03:50:30.908Z,8.28
2023-05-11T03:51:34.676Z,8.30
2023-05-11T03:52:40.333Z,8.30
2023-05-11T03:53:42.618Z,8.29
2023-05-11T03:54:47.407Z,8.28
2023-05-11T03:55:50.840Z,8.32
2023-05-11T03:56:55.566Z,8.33
2023-05-11T03:57:57.909Z,8.30
2023-05-11T03:59:02.746Z,8.36
2023-05-11T04:00:06.716Z,8.36
2023-05-11T04:01:11.893Z,8.35
2023-05-11T04:02:14.224Z,8.34
2023-05-11T04:03:19.113Z,8.33
2023-05-11T04:04:28.964Z,8.37
2023-05-11T04:05:33.695Z,8.38
2023-05-11T04:06:35.873Z,8.35
2023-05-11T04:07:41.932Z,8.37
2023-05-11T04:08:44.357Z,8.39
2023-05-11T04:09:49.066Z,8.39
2023-05-11T04:10:51.126Z,8.38
2023-05-11T04:11:55.941Z,8.44
2023-05-11T04:12:58.191Z,8.45
2023-05-11T04:14:02.851Z,8.42
2023-05-11T04:15:05.648Z,8.45
2023-05-11T04:16:10.972Z,8.48
2023-05-11T04:17:13.044Z,8.47
2023-05-11T04:18:17.757Z,8.41
2023-05-11T04:19:20.207Z,8.36
2023-05-11T04:20:27.740Z,8.33
2023-05-11T04:21:29.849Z,8.41
2023-05-11T04:22:34.537Z,8.37
2023-05-11T04:23:37.369Z,8.35
2023-05-11T04:24:42.253Z,8.39
2023-05-11T04:25:44.349Z,8.40
2023-05-11T04:26:49.053Z,8.38
2023-05-11T04:27:51.138Z,8.44
2023-05-11T04:28:55.893Z,8.42
2023-05-11T04:29:57.944Z,8.39
2023-05-11T04:31:02.735Z,8.45
2023-05-11T04:32:05.367Z,8.46
2023-05-11T04:33:10.101Z,8.46
2023-05-11T04:34:12.166Z,8.44
2023-05-11T04:35:16.777Z,8.45
2023-05-11T04:36:22.472Z,8.45
2023-05-11T04:37:27.117Z,8.45
2023-05-11T04:38:29.244Z,8.46
2023-05-11T04:39:34.438Z,8.45
2023-05-11T04:40:36.693Z,8.53
2023-05-11T04:41:41.343Z,8.55
2023-05-11T04:42:43.403Z,8.60
2023-05-11T04:43:48.041Z,8.57
2023-05-11T04:44:56.345Z,8.47
2023-05-11T04:45:59.404Z,8.49
2023-05-11T04:47:04.095Z,8.51
2023-05-11T04:48:06.935Z,8.62
2023-05-11T04:49:11.634Z,8.59
2023-05-11T04:50:13.827Z,8.56
2023-05-11T04:51:18.764Z,8.55
2023-05-11T04:52:23.470Z,8.55
2023-05-11T04:53:28.116Z,8.55
2023-05-11T04:54:31.345Z,8.64
2023-05-11T04:55:36.041Z,8.73
2023-05-11T04:56:40.818Z,8.71
2023-05-11T04:57:45.488Z,8.73
2023-05-11T04:58:47.596Z,8.72
2023-05-11T04:59:52.289Z,8.70
2023-05-11T05:00:54.406Z,8.69
2023-05-11T05:01:59.202Z,8.76
2023-05-11T05:03:01.262Z,8.76
2023-05-11T05:04:06.389Z,8.80
2023-05-11T05:05:09.577Z,8.76
2023-05-11T05:06:14.252Z,8.77
2023-05-11T05:07:16.294Z,8.82
2023-05-11T05:08:23.545Z,8.77
2023-05-11T05:09:25.694Z,8.77
2023-05-11T05:10:30.413Z,8.78
2023-05-11T05:11:32.458Z,8.78
2023-05-11T05:12:37.115Z,8.78
2023-05-11T05:13:39.171Z,8.80
2023-05-11T05:14:43.828Z,8.81
2023-05-11T05:15:45.869Z,8.82
2023-05-11T05:16:50.572Z,8.83
2023-05-11T05:17:52.773Z,8.71
2023-05-11T05:18:57.562Z,8.76
2023-05-11T05:19:59.674Z,8.81
2023-05-11T05:21:04.342Z,8.82
2023-05-11T05:22:06.467Z,8.87
2023-05-11T05:23:11.124Z,8.86
2023-05-11T05:24:15.781Z,8.87
2023-05-11T05:25:21.739Z,8.86
2023-05-11T05:26:23.801Z,8.92
2023-05-11T05:27:28.782Z,8.90
2023-05-11T05:28:30.848Z,8.94
2023-05-11T05:29:35.558Z,8.95
2023-05-11T05:30:37.664Z,8.94
2023-05-11T05:31:42.415Z,8.98
2023-05-11T05:32:44.583Z,9.01
2023-05-11T05:33:49.268Z,9.04
2023-05-11T05:34:51.400Z,8.81
2023-05-11T05:35:56.096Z,8.85
2023-05-11T05:36:58.148Z,8.92
2023-05-11T05:38:02.925Z,8.99
2023-05-11T05:39:09.072Z,8.92
2023-05-11T05:40:16.910Z,9.00
2023-05-11T05:41:19.452Z,9.04
2023-05-11T05:42:24.103Z,9.06
2023-05-11T05:43:26.150Z,9.03
2023-05-11T05:44:30.781Z,9.00
2023-05-11T05:45:32.813Z,9.01
2023-05-11T05:46:37.563Z,9.03
2023-05-11T05:47:40.181Z,9.07
2023-05-11T05:48:44.854Z,9.12
2023-05-11T05:49:46.959Z,9.09
2023-05-11T05:50:51.614Z,9.04
2023-05-11T05:51:53.707Z,9.00
2023-05-11T05:52:58.360Z,9.02
2023-05-11T05:54:00.563Z,9.08
2023-05-11T05:55:05.212Z,9.09
2023-05-11T05:56:10.366Z,9.13
2023-05-11T05:57:15.764Z,9.13
2023-05-11T05:58:18.026Z,9.18
2023-05-11T05:59:24.469Z,9.23
2023-05-11T06:00:26.499Z,9.15
2023-05-11T06:01:31.557Z,9.22
2023-05-11T06:02:33.677Z,9.14
2023-05-11T06:03:40.341Z,9.12
2023-05-11T06:04:45.289Z,9.16
2023-05-11T06:05:47.461Z,9.12
2023-05-11T06:06:52.211Z,9.10
2023-05-11T06:08:08.402Z,9.01
2023-05-11T06:09:14.262Z,9.04
2023-05-11T06:10:16.567Z,9.09
2023-05-11T06:11:24.230Z,9.04
2023-05-11T06:12:28.944Z,9.08
2023-05-11T06:13:30.997Z,9.08
2023-05-11T06:14:35.678Z,9.12
2023-05-11T06:15:37.980Z,9.17
2023-05-11T06:16:42.754Z,9.09
2023-05-11T06:17:44.994Z,9.07
2023-05-11T06:18:49.842Z,9.14
2023-05-11T06:19:52.511Z,9.09
2023-05-11T06:20:57.482Z,9.17
2023-05-11T06:22:04.276Z,9.21
2023-05-11T06:23:08.202Z,9.27
2023-05-11T06:24:12.875Z,9.28
2023-05-11T06:25:15.201Z,9.27
2023-05-11T06:26:19.867Z,9.31
2023-05-11T06:27:27.215Z,9.37
2023-05-11T06:28:30.224Z,9.37
2023-05-11T06:29:34.866Z,9.30
2023-05-11T06:30:36.885Z,9.35
2023-05-11T06:31:41.696Z,9.36
2023-05-11T06:32:43.856Z,9.35
2023-05-11T06:33:49.269Z,9.27
2023-05-11T06:34:51.292Z,9.26
2023-05-11T06:35:56.009Z,9.19
2023-05-11T06:36:59.409Z,9.30
2023-05-11T06:38:04.020Z,9.34
2023-05-11T06:39:07.062Z,9.43
2023-05-11T06:40:13.691Z,9.54
2023-05-11T06:41:15.750Z,9.56
2023-05-11T06:42:20.435Z,9.56
2023-05-11T06:43:25.386Z,9.63
2023-05-11T06:44:30.222Z,9.64
2023-05-11T06:45:34.974Z,9.61
2023-05-11T06:46:37.058Z,9.54
2023-05-11T06:47:41.854Z,9.58
2023-05-11T06:48:43.997Z,9.60
2023-05-11T06:49:48.779Z,9.61
2023-05-11T06:50:50.850Z,9.50
2023-05-11T06:51:55.647Z,9.36
2023-05-11T06:52:57.759Z,9.47
2023-05-11T06:54:02.593Z,9.55
2023-05-11T06:55:08.092Z,9.63
2023-05-11T06:56:10.676Z,9.66
2023-05-11T06:57:15.333Z,9.72
2023-05-11T06:58:20.712Z,9.78
2023-05-11T06:59:28.155Z,9.81
2023-05-11T07:00:30.201Z,9.85
2023-05-11T07:01:35.023Z,9.85
2023-05-11T07:02:37.152Z,10.00
2023-05-11T07:03:41.851Z,10.08
2023-05-11T07:04:43.925Z,9.83
2023-05-11T07:05:48.580Z,9.92
2023-05-11T07:06:50.681Z,9.96
2023-05-11T07:07:55.348Z,9.89
2023-05-11T07:08:57.481Z,9.93
2023-05-11T07:10:02.142Z,9.89
2023-05-11T07:11:04.246Z,9.96
2023-05-11T07:12:09.089Z,10.04
2023-05-11T07:13:11.310Z,10.15
2023-05-11T07:14:16.004Z,10.19
2023-05-11T07:15:21.009Z,10.20
2023-05-11T07:16:25.981Z,10.04
2023-05-11T07:17:28.866Z,10.14
2023-05-11T07:18:33.611Z,10.20
2023-05-11T07:19:38.278Z,10.27
2023-05-11T07:20:41.162Z,10.33
2023-05-11T07:21:45.863Z,10.42
2023-05-11T07:22:47.987Z,10.51
2023-05-11T07:23:52.779Z,10.65
2023-05-11T07:24:54.834Z,10.75
2023-05-11T07:25:59.488Z,10.86
2023-05-11T07:27:04.108Z,10.92
2023-05-11T07:28:06.195Z,10.93
2023-05-11T07:29:10.868Z,10.73
2023-05-11T07:30:13.427Z,10.42
2023-05-11T07:31:20.894Z,10.48
2023-05-11T07:32:23.072Z,10.26
2023-05-11T07:33:27.921Z,10.38
2023-05-11T07:34:32.685Z,10.48
2023-05-11T07:35:37.387Z,10.60
2023-05-11T07:36:39.471Z,10.73
2023-05-11T07:37:44.267Z,10.70
2023-05-11T07:38:46.626Z,10.56
2023-05-11T07:39:51.296Z,10.48
2023-05-11T07:40:55.962Z,10.59
2023-05-11T07:41:58.029Z,10.65
2023-05-11T07:43:02.727Z,10.83
2023-05-11T07:44:07.765Z,10.76
2023-05-11T07:45:13.327Z,10.46
2023-05-11T07:46:18.102Z,10.54
2023-05-11T07:47:23.738Z,10.61
2023-05-11T07:48:25.860Z,10.64
2023-05-11T07:49:40.026Z,10.77
2023-05-11T07:50:49.692Z,10.67
2023-05-11T07:51:52.770Z,10.30
2023-05-11T07:52:57.603Z,10.34
2023-05-11T07:53:59.664Z,10.37
2023-05-11T07:55:04.314Z,10.43
2023-05-11T07:56:07.056Z,10.61
2023-05-11T07:57:13.951Z,10.78
2023-05-11T07:58:16.144Z,10.96
2023-05-11T07:59:21.133Z,11.00
2023-05-11T08:00:23.563Z,10.93
2023-05-11T08:01:30.826Z,10.98
2023-05-11T08:02:33.062Z,11.16
2023-05-11T08:03:37.828Z,11.15
2023-05-11T08:04:40.853Z,11.27
2023-05-11T08:05:45.645Z,11.29
2023-05-11T08:06:47.831Z,11.11
2023-05-11T08:07:52.562Z,11.19
2023-05-11T08:08:54.632Z,11.21
2023-05-11T08:09:59.401Z,11.01
2023-05-11T08:11:04.508Z,10.95
2023-05-11T08:12:09.425Z,10.90
2023-05-11T08:13:11.560Z,10.91
2023-05-11T08:14:17.393Z,10.71
2023-05-11T08:15:20.018Z,10.85
2023-05-11T08:16:24.943Z,10.65
2023-05-11T08:17:30.314Z,10.64
2023-05-11T08:18:35.060Z,10.54
2023-05-11T08:19:37.302Z,10.37
2023-05-11T08:20:42.480Z,10.37
2023-05-11T08:21:46.475Z,10.52
2023-05-11T08:22:51.160Z,10.44
2023-05-11T08:23:55.838Z,10.56
2023-05-11T08:24:57.944Z,10.70
2023-05-11T08:26:02.963Z,10.71
2023-05-11T08:27:05.247Z,10.79
2023-05-11T08:28:09.898Z,10.54
2023-05-11T08:29:12.642Z,10.69
2023-05-11T08:30:18.007Z,10.63
2023-05-11T08:31:20.121Z,10.59
2023-05-11T08:32:25.031Z,10.69
2023-05-11T08:33:38.088Z,10.78
2023-05-11T08:34:43.476Z,10.97
2023-05-11T08:35:45.586Z,10.87
2023-05-11T08:36:50.555Z,11.07
2023-05-11T08:37:52.692Z,11.13
2023-05-11T08:38:59.245Z,11.02
2023-05-11T08:40:01.496Z,10.98
2023-05-11T08:41:07.885Z,11.06
2023-05-11T08:42:10.504Z,11.10
2023-05-11T08:43:16.837Z,11.22
2023-05-11T08:44:20.683Z,11.32
2023-05-11T08:45:26.044Z,11.35
2023-05-11T08:46:33.842Z,11.40
2023-05-11T08:47:36.121Z,11.21
2023-05-11T08:48:44.008Z,11.00
2023-05-11T08:49:48.840Z,11.01
2023-05-11T08:50:53.846Z,11.19
2023-05-11T08:51:56.537Z,11.37
2023-05-11T08:53:01.178Z,11.49
2023-05-11T08:54:03.886Z,11.32
2023-05-11T08:55:10.139Z,11.54
2023-05-11T08:56:12.535Z,11.64
2023-05-11T08:57:17.679Z,11.72
2023-05-11T08:58:22.666Z,11.84
2023-05-11T08:59:27.776Z,11.94
2023-05-11T09:00:33.946Z,12.00
2023-05-11T09:01:37.444Z,11.77
2023-05-11T09:02:42.781Z,11.72
2023-05-11T09:03:48.290Z,11.71
2023-05-11T09:04:53.838Z,11.81
2023-05-11T09:05:59.065Z,11.76
2023-05-11T09:07:01.256Z,11.74
2023-05-11T09:08:08.856Z,11.69
2023-05-11T09:09:11.063Z,11.72
2023-05-11T09:10:16.261Z,11.80
2023-05-11T09:11:18.759Z,11.65
2023-05-11T09:12:26.428Z,11.42
2023-05-11T09:13:32.252Z,11.54
2023-05-11T09:14:37.021Z,11.45
2023-05-11T09:15:41.697Z,11.50
2023-05-11T09:16:46.439Z,11.28
2023-05-11T09:17:48.550Z,11.38
2023-05-11T09:18:57.109Z,11.27
2023-05-11T09:20:01.045Z,11.52
2023-05-11T09:21:06.088Z,11.67
2023-05-11T09:22:08.246Z,11.54
2023-05-11T09:23:13.287Z,11.61
2023-05-11T09:24:15.495Z,11.74
2023-05-11T09:25:21.084Z,11.80
2023-05-11T09:26:24.582Z,11.96
2023-05-11T09:27:29.279Z,11.88
2023-05-11T09:28:35.900Z,11.97
2023-05-11T09:29:41.097Z,11.81
2023-05-11T09:30:43.488Z,11.94
2023-05-11T09:31:49.700Z,12.01
2023-05-11T09:32:56.794Z,11.87
2023-05-11T09:34:16.076Z,11.82
2023-05-11T09:35:25.752Z,12.03
2023-05-11T09:36:27.823Z,11.97
2023-05-11T09:37:32.599Z,12.10
2023-05-11T09:38:34.753Z,12.16
2023-05-11T09:39:53.437Z,12.16
2023-05-11T09:41:05.078Z,12.16
2023-05-11T09:42:14.496Z,12.38
2023-05-11T09:43:20.787Z,12.19
2023-05-11T09:44:32.146Z,12.17
2023-05-11T09:45:41.836Z,12.36
2023-05-11T09:46:48.832Z,12.29
2023-05-11T09:47:50.951Z,12.39
2023-05-11T09:49:02.931Z,12.44
2023-05-11T09:50:26.440Z,12.40
2023-05-11T09:51:33.602Z,12.38
2023-05-11T09:52:47.223Z,12.10
2023-05-11T09:53:51.990Z,12.21
2023-05-11T09:54:54.043Z,12.29
2023-05-11T09:55:59.252Z,12.11
2023-05-11T09:57:04.782Z,12.31
2023-05-11T09:58:06.799Z,12.44
2023-05-11T09:59:13.292Z,12.15
2023-05-11T10:00:16.633Z,12.12
2023-05-11T10:01:32.689Z,12.27
2023-05-11T10:02:37.493Z,11.91
2023-05-11T10:03:46.954Z,11.86
2023-05-11T10:04:52.312Z,12.00
2023-05-11T10:06:04.507Z,11.85
2023-05-11T10:07:09.237Z,12.19
2023-05-11T10:08:13.961Z,12.18
2023-05-11T10:09:18.733Z,12.25
2023-05-11T10:10:23.502Z,12.05
2023-05-11T10:11:26.436Z,12.22
2023-05-11T10:12:33.686Z,12.05
2023-05-11T10:13:37.274Z,11.85
2023-05-11T10:14:41.990Z,11.88
2023-05-11T10:15:47.148Z,12.13
2023-05-11T10:16:49.345Z,12.18
2023-05-11T10:17:56.841Z,11.94
2023-05-11T10:18:59.544Z,12.11
2023-05-11T10:20:05.762Z,12.09
2023-05-11T10:21:11.295Z,12.09
2023-05-11T10:22:16.260Z,12.20
2023-05-11T10:23:21.609Z,12.20
2023-05-11T10:24:26.713Z,12.36
2023-05-11T10:25:31.496Z,12.43
2023-05-11T10:26:34.321Z,12.54
2023-05-11T10:27:39.974Z,12.66
2023-05-11T10:29:15.528Z,12.79
2023-05-11T10:30:21.364Z,12.96
2023-05-11T10:31:24.993Z,12.88
2023-05-11T10:32:31.497Z,12.97
2023-05-11T10:33:34.793Z,12.73
2023-05-11T10:34:39.995Z,12.75
2023-05-11T10:35:42.685Z,12.64
2023-05-11T10:36:51.169Z,12.69
2023-05-11T10:37:53.543Z,12.53
2023-05-11T10:38:58.204Z,12.70
2023-05-11T10:40:00.587Z,12.74
2023-05-11T10:41:19.532Z,12.49
2023-05-11T10:42:39.190Z,12.60
2023-05-11T10:44:04.593Z,11.97
2023-05-11T10:45:21.710Z,12.07
2023-05-11T10:46:40.811Z,12.14
2023-05-11T10:48:17.435Z,12.21
2023-05-11T10:49:39.010Z,12.12
2023-05-11T10:51:05.639Z,12.21
2023-05-11T10:52:29.449Z,12.21
2023-05-11T10:53:49.005Z,12.21
2023-05-11T10:55:11.927Z,12.38
2023-05-11T10:56:26.581Z,12.48
2023-05-11T10:57:43.276Z,12.46
2023-05-11T10:59:06.747Z,12.48
2023-05-11T11:01:10.206Z,12.48
2023-05-11T11:02:14.300Z,12.09
2023-05-11T11:03:20.155Z,12.28
2023-05-11T11:04:28.149Z,12.27
2023-05-11T11:05:38.379Z,12.08
2023-05-11T11:06:45.426Z,12.24
2023-05-11T11:08:01.314Z,12.41
2023-05-11T11:09:08.248Z,12.49
2023-05-11T11:10:10.678Z,12.65
2023-05-11T11:11:33.594Z,12.67
2023-05-11T11:12:38.373Z,12.79
2023-05-11T11:13:58.757Z,12.87
2023-05-11T11:15:05.408Z,12.87
2023-05-11T11:16:14.521Z,13.02
2023-05-11T11:17:29.215Z,13.16
2023-05-11T11:18:33.788Z,12.75
2023-05-11T11:19:38.953Z,12.87
2023-05-11T11:20:52.484Z,12.98
2023-05-11T11:21:54.754Z,13.13
2023-05-11T11:23:02.464Z,13.07
2023-05-11T11:24:05.259Z,13.25
2023-05-11T11:25:11.013Z,13.10
2023-05-11T11:26:15.813Z,12.96
2023-05-11T11:27:20.673Z,12.49
2023-05-11T11:28:22.844Z,12.82
2023-05-11T11:29:28.378Z,12.83
2023-05-11T11:30:31.040Z,12.72
2023-05-11T11:31:37.296Z,12.72
2023-05-11T11:32:43.523Z,12.89
2023-05-11T11:33:50.208Z,12.75
2023-05-11T11:34:52.676Z,12.86
2023-05-11T11:35:57.599Z,13.00
2023-05-11T11:37:04.174Z,12.76
2023-05-11T11:38:13.114Z,12.75
2023-05-11T11:39:15.258Z,12.62
2023-05-11T11:40:49.463Z,12.50
2023-05-11T11:42:04.245Z,12.65
2023-05-11T11:43:18.188Z,12.54
2023-05-11T11:44:23.241Z,12.53
2023-05-11T11:45:33.741Z,12.32
2023-05-11T11:46:40.587Z,12.15
2023-05-11T11:48:02.864Z,12.28
2023-05-11T11:49:11.626Z,12.48
2023-05-11T11:50:14.520Z,12.63
2023-05-11T11:51:19.252Z,12.75
2023-05-11T11:52:33.870Z,12.81
2023-05-11T11:54:05.239Z,12.80
2023-05-11T11:55:10.644Z,12.93
2023-05-11T11:56:42.261Z,12.53
2023-05-11T11:57:46.861Z,12.65
2023-05-11T11:59:03.211Z,12.59
2023-05-11T12:00:13.169Z,12.42
2023-05-11T12:01:16.980Z,12.46
2023-05-11T12:02:22.652Z,12.61
2023-05-11T12:03:25.944Z,12.58
2023-05-11T12:04:55.076Z,12.60
2023-05-11T12:06:01.928Z,12.56
2023-05-11T12:07:10.886Z,12.16
2023-05-11T12:08:18.627Z,12.23
2023-05-11T12:09:23.715Z,12.12
2023-05-11T12:10:28.478Z,12.23
2023-05-11T12:11:30.637Z,12.21
2023-05-11T12:12:36.333Z,12.39
2023-05-11T12:13:39.733Z,12.46
2023-05-11T12:14:49.362Z,12.52
2023-05-11T12:16:07.578Z,12.55
2023-05-11T12:17:16.639Z,12.40
2023-05-11T12:18:21.994Z,12.53
2023-05-11T12:19:28.482Z,12.18
2023-05-11T12:20:33.171Z,11.82
2023-05-11T12:21:35.279Z,11.92
2023-05-11T12:22:40.115Z,12.15
2023-05-11T12:23:52.977Z,12.01
2023-05-11T12:25:08.224Z,12.04
2023-05-11T12:26:10.336Z,12.02
2023-05-11T12:27:15.235Z,11.92
2023-05-11T12:28:22.755Z,11.82
2023-05-11T12:29:25.260Z,11.54
2023-05-11T12:30:32.019Z,11.44
2023-05-11T12:31:36.096Z,11.33
2023-05-11T12:32:40.814Z,11.29
2023-05-11T12:33:45.959Z,11.17
2023-05-11T12:35:00.506Z,11.42
2023-05-11T12:36:02.653Z,11.58
2023-05-11T12:37:09.578Z,11.70
2023-05-11T12:38:11.977Z,11.84
2023-05-11T12:39:21.085Z,11.93
2023-05-11T12:40:28.565Z,11.97
2023-05-11T12:41:30.782Z,11.99
2023-05-11T12:42:35.538Z,11.92
2023-05-11T12:43:38.120Z,12.12
2023-05-11T12:44:43.708Z,12.09
2023-05-11T12:45:46.199Z,12.13
2023-05-11T12:46:52.222Z,12.34
2023-05-11T12:47:55.595Z,12.56
2023-05-11T12:49:01.435Z,12.55
2023-05-11T12:50:03.791Z,12.73
2023-05-11T12:51:08.523Z,12.81
2023-05-11T12:52:13.393Z,12.71
2023-05-11T12:53:17.807Z,12.49
2023-05-11T12:54:41.263Z,12.26
2023-05-11T12:55:59.900Z,12.27
2023-05-11T12:57:05.707Z,12.31
2023-05-11T12:58:09.148Z,12.36
2023-05-11T12:59:27.223Z,12.06
2023-05-11T13:00:31.958Z,12.05
2023-05-11T13:01:37.195Z,12.01
2023-05-11T13:02:52.208Z,11.83
2023-05-11T13:03:54.694Z,11.96
2023-05-11T13:04:59.356Z,11.96
2023-05-11T13:06:05.805Z,12.02
2023-05-11T13:07:10.977Z,12.13
2023-05-11T13:08:14.886Z,12.17
2023-05-11T13:09:25.200Z,12.32
2023-05-11T13:10:30.843Z,12.32
2023-05-11T13:11:36.151Z,12.13
2023-05-11T13:12:51.933Z,11.99
2023-05-11T13:13:55.598Z,11.98
2023-05-11T13:15:12.991Z,11.87
2023-05-11T13:16:27.533Z,11.76
2023-05-11T13:17:31.491Z,11.62
2023-05-11T13:18:36.494Z,11.50
2023-05-11T13:19:39.685Z,11.66
2023-05-11T13:20:45.199Z,11.71
2023-05-11T13:21:47.229Z,11.85
2023-05-11T13:22:53.093Z,12.02
2023-05-11T13:23:55.588Z,12.12
2023-05-11T13:25:06.658Z,12.14
2023-05-11T13:26:11.448Z,12.24
2023-05-11T13:27:18.751Z,12.34
2023-05-11T13:28:25.534Z,12.44
2023-05-11T13:29:28.001Z,12.57
2023-05-11T13:30:34.906Z,12.64
2023-05-11T13:31:43.150Z,12.85
2023-05-11T13:32:47.904Z,13.00
2023-05-11T13:33:51.603Z,13.16
2023-05-11T13:34:56.343Z,13.24
2023-05-11T13:35:58.425Z,13.38
2023-05-11T13:37:03.134Z,13.08
2023-05-11T13:38:05.474Z,13.38
2023-05-11T13:39:10.864Z,13.54
2023-05-11T13:40:16.396Z,13.68
2023-05-11T13:41:18.469Z,13.68
2023-05-11T13:42:26.931Z,13.85
2023-05-11T13:43:31.625Z,13.76
2023-05-11T13:44:36.401Z,13.93
2023-05-11T13:45:41.063Z,13.74
2023-05-11T13:46:46.104Z,13.87
2023-05-11T13:47:48.458Z,13.63
2023-05-11T13:48:54.943Z,13.76
2023-05-11T13:49:59.893Z,13.81
2023-05-11T13:51:01.982Z,13.36
2023-05-11T13:52:07.446Z,13.46
2023-05-11T13:53:11.152Z,13.42
2023-05-11T13:54:17.624Z,13.40
2023-05-11T13:55:20.142Z,13.29
2023-05-11T13:56:25.010Z,13.11
2023-05-11T13:57:32.352Z,13.16
2023-05-11T13:58:35.866Z,13.15
2023-05-11T13:59:40.711Z,13.14
2023-05-11T14:00:48.081Z,13.13
2023-05-11T14:01:58.287Z,13.14
2023-05-11T14:03:03.164Z,13.10
2023-05-11T14:04:08.249Z,13.16
2023-05-11T14:05:10.331Z,13.25
2023-05-11T14:06:15.071Z,13.22
2023-05-11T14:07:19.736Z,13.31
2023-05-11T14:08:22.043Z,13.31
2023-05-11T14:09:26.979Z,13.35
2023-05-11T14:10:29.152Z,13.39
2023-05-11T14:11:33.801Z,13.48
2023-05-11T14:12:41.153Z,13.53
2023-05-11T14:13:43.263Z,13.66
2023-05-11T14:14:48.235Z,13.74
2023-05-11T14:15:50.379Z,13.65
2023-05-11T14:16:55.287Z,13.41
2023-05-11T14:17:57.540Z,13.45
2023-05-11T14:19:02.328Z,13.54
2023-05-11T14:20:06.656Z,13.48
2023-05-11T14:21:11.873Z,13.56
2023-05-11T14:22:13.977Z,13.56
2023-05-11T14:23:18.622Z,13.47
2023-05-11T14:24:23.258Z,13.43
2023-05-11T14:25:25.394Z,13.42